reinig im Turnier von 01.01.2019 bis 01.02.2019

reinigs Ergebnis

Rang 446.
Turnierpunkte 944
Gespielt : Gewonnen 100 : 57
Schneider 8
Bilanz 578:483

reinigs Bummerln

Zeit Gegner Ergebnis Ende
17:48:44 am 11.01.2019 Marcii 4:8 normal
16:49:52 am 11.01.2019 M-Tine 7:4 normal
14:08:15 am 11.01.2019 manusi85 6:7 normal
14:01:47 am 11.01.2019 L.K.-2507 5:7 normal
13:56:18 am 11.01.2019 Carpe diem!! 8:2 normal
13:51:57 am 11.01.2019 Black Cat 7:2 normal
13:46:13 am 11.01.2019 Aron2013 8:4 normal
20:30:33 am 10.01.2019 Sepp 8:3 normal
20:22:24 am 10.01.2019 Filip Uhl 8:6 normal
18:52:38 am 10.01.2019 Hochi75 0:7 normal
18:47:34 am 10.01.2019 Ernesto 9:2 normal
18:44:53 am 10.01.2019 Michael 3:8 normal
18:37:55 am 10.01.2019 Manfred 3:8 normal
17:45:33 am 10.01.2019 janko 7:3 normal
17:42:15 am 10.01.2019 herwig 1:7 normal
17:36:48 am 10.01.2019 Tome 7:0 normal
17:33:42 am 10.01.2019 Cappo 8:2 normal
17:29:22 am 10.01.2019 Maria 13 7:2 normal
17:25:10 am 10.01.2019 Trippolt Johannes 2:8 normal
17:22:01 am 10.01.2019 Hupo 7:4 normal
16:13:47 am 10.01.2019 Sepp9421 5:7 normal
20:44:08 am 09.01.2019 JoHo78 2:7 normal
20:42:06 am 09.01.2019 Kalti 7:0 normal
19:21:51 am 09.01.2019 tor1984 4:7 normal
08:12:44 am 09.01.2019 Nikolaus Leitinger 7:0 normal
17:08:41 am 08.01.2019 Daniel 7:2 normal
17:02:30 am 08.01.2019 rossi 7:3 normal
09:45:38 am 08.01.2019 Erich 6:8 normal
20:55:49 am 07.01.2019 Christoph 6:8 normal
20:47:16 am 07.01.2019 patrik 3:7 normal
20:42:56 am 07.01.2019 Patrick1985 8:1 normal
20:37:30 am 07.01.2019 Paulette 7:6 normal
20:34:32 am 07.01.2019 *hosa1825 7:3 autocontnormal
17:13:41 am 07.01.2019 Hias 7:3 normal
17:10:41 am 07.01.2019 Bariton 3:8 normal
17:02:23 am 07.01.2019 fips 5:7 normal
10:28:07 am 07.01.2019 Viki 6:7 normal
10:23:37 am 07.01.2019 Geggi Strobl 4:7 normal
20:10:13 am 06.01.2019 KarinP. 6:7 normal
16:34:26 am 06.01.2019 Mike19582 1:7 normal
13:42:33 am 06.01.2019 Sandi SG6 0:7 normal
13:39:24 am 06.01.2019 Player 3:7 normal
13:35:40 am 06.01.2019 Baumi 6:7 normal
13:30:56 am 06.01.2019 schnopseromi 6:7 normal
13:25:25 am 06.01.2019 wutzi 7:4 normal
13:23:48 am 06.01.2019 DELETED 2:8 normal
19:47:43 am 05.01.2019 peter luftig 3:7 normal
19:44:18 am 05.01.2019 mlke 0:7 normal
14:00:57 am 05.01.2019 Thomas Baumgartner 1:7 normal
13:56:36 am 05.01.2019 Wauzi2 5:8 normal
12:30:42 am 05.01.2019 knap88 8:3 normal
12:25:21 am 05.01.2019 Hapi 8:2 normal
12:19:28 am 05.01.2019 Igor Makari 4:9 normal
12:16:35 am 05.01.2019 mary0F 7:4 normal
09:50:32 am 05.01.2019 Letti 8:2 normal
09:43:45 am 05.01.2019 Charlie Firpo 7:5 normal
09:39:20 am 05.01.2019 *ww14 7:4 autocontnormal
09:33:52 am 05.01.2019 D5503 1:8 normal
09:30:32 am 05.01.2019 zuadraht 7:2 normal
21:54:31 am 04.01.2019 marcon 5:8 normal
21:49:33 am 04.01.2019 samsung SM-G388F 8:2 normal
21:42:30 am 04.01.2019 gust2 7:3 normal
18:14:29 am 04.01.2019 Speedy 7:5 normal
18:12:05 am 04.01.2019 flojo 8:1 normal
18:07:08 am 04.01.2019 Chris.P. 7:6 normal
18:02:10 am 04.01.2019 *DARKU 8:3 autocontnormal
17:55:08 am 04.01.2019 Bernd FrÃÂÃÂÃÂ... 6:7 normal
16:11:41 am 04.01.2019 LGNH 3:7 normal
16:07:01 am 04.01.2019 Fischer Rudi 2:8 normal
16:03:09 am 04.01.2019 Thorsten 9:4 normal
11:45:14 am 04.01.2019 SM-J500FN 6:7 normal
11:41:56 am 04.01.2019 Godis 3:8 normal
11:39:55 am 04.01.2019 hjs 8:0 normal
11:36:21 am 04.01.2019 Siggi1102 3:8 normal
11:33:14 am 04.01.2019 slaughterer 8:0 normal
10:04:54 am 04.01.2019 Lucas1978 8:0 normal
09:59:02 am 04.01.2019 *Petrus 7:4 autocontnormal
09:54:37 am 04.01.2019 Player 7:4 normal
09:48:28 am 04.01.2019 Brunetti 8:6 normal
09:42:03 am 04.01.2019 Alles 7:5 normal
16:27:02 am 03.01.2019 Murat Soysal 7:6 normal
16:22:24 am 03.01.2019 Melinda Katona 7:3 normal
16:16:45 am 03.01.2019 *Wuzi 5:8 autocontnormal
16:13:49 am 03.01.2019 MatthiasH 7:1 normal
16:09:31 am 03.01.2019 janja 3:7 normal
12:11:58 am 03.01.2019 Super Joker 5:8 normal
12:08:21 am 03.01.2019 Robin Hood 9:0 normal
12:05:19 am 03.01.2019 jonas31 8:2 normal
12:01:21 am 03.01.2019 domsl 7:5 normal
11:55:50 am 03.01.2019 gli 8:4 normal
10:29:55 am 03.01.2019 rares81 9:0 normal
10:25:47 am 03.01.2019 Vorwerk Gottfried 7:1 normal
10:22:51 am 03.01.2019 Ferry 7:2 normal
10:20:10 am 03.01.2019 DELETED 7:2 normal
13:01:19 am 02.01.2019 margitW 7:4 normal
12:56:02 am 02.01.2019 Thomas 3:7 normal
12:53:50 am 02.01.2019 wuz6 7:6 normal
12:50:03 am 02.01.2019 suuupaa 3:8 normal
12:45:58 am 02.01.2019 tiguan 7:4 normal
12:38:49 am 02.01.2019 Hr. Werner 7:2 normal